Share

Anco, KY

KKYJACKS3 Elev 994 ft | 37.41 °N, 83.42 °W | Change Station
Active Advisory: Special Statement

Current weather conditions updated 2 minutes ago

Clear
Clear
77.7 °F
Feels Like 78 °F
N
0.0
Wind Variable Wind from North
Gusts 0.0 mph
Sunrise 6:50 AM
Sunset 8:11 PM
Moon Waning Gibbous

Tomorrow is forecast to be nearly the same temperature as today. Showers late tomorrow night.

Pressure 30.15 in
Visibility 10.0 miles
Clouds Clear
Heat Index 78 °F
Dew Point 37 °F
Humidity 23%
Rainfall 0.00 in
Snow Depth Not available.
UV 7 out of 16
Pollen 10.30 out of 12
Air Quality Not available.
Flu Activity Sporadic
METAR KJKL 201953Z AUTO VRB03KT 10SM CLR 24/M03 A3018 RMK AO2 SLP209 T02391028

More Conditions Fewer Conditions

Pressure 30.15 in
Visibility 10.0 miles
Clouds Clear
Heat Index 78 °F
Dew Point 37 °F
Humidity 23%
Rainfall 0.00 in
Snow Depth Not available.
UV 7 out of 16
Pollen 10.30 out of 12
Air Quality Not available.
Flu Activity Sporadic
METAR KJKL 201953Z AUTO VRB03KT 10SM CLR 24/M03 A3018 RMK AO2 SLP209 T02391028

More Conditions Fewer Conditions

10-Day Weather Forecast

Almanac

Astronomy

Apr. 20, 2014 Rise Set
Actual Time 6:50 AM EDT 8:11 PM EDT
Civil Twilight 6:23 AM EDT 8:38 PM EDT
Nautical Twilight 5:51 AM EDT 9:11 PM EDT
Astronomical Twilight 5:17 AM EDT 9:45 PM EDT
Moon 12:47 AM EDT 11:12 AM EDT
Length of Visible Light 14h 15m
Length of Day
13h 20m
Tomorrow will be 2m 12s longer.
Waning Gibbous, 67% of the Moon is Illuminated
Today
Waning Gibbous
Apr 22
Last Quarter
Apr 29
New
May 6
First Quarter
May 14
Full

Today's Extremes

State Highs State Lows

Community

  • Morning Sun
    Morning Sun
  • after rain
    after rain
  • Columbine
    Columbine
  • Easter Sunrise
    Easter Sunrise
  • Easter Eve - The Promise - Lake Palestine, TX
    Easter Eve - The Promise - Lake Palestine, TX

WunderPhotos

Upload Photos

1,703,339 photos uploaded!

WunderBlogs® & News

Nearby

Snow Depth

Station Depth Elevation
No new snow has been reported.

Coastal Water Temperatures

Place Temperature
No Stations Reporting

Earthquake Activity

City Distance Mag. Time & Date
No recent earthquake activity has been reported nearby.
Minimum magnitude displayed is 2.5.

Nearby Weather Stations

Station Location Temp. Heat Index Dew Point Humidity Wind Precip. Elev Updated Type
Talbert, KY 77.7 °F 78 °F 37 °F 23% North  at  0.0 mph 0.00 in / hr 994 ft 4:00 PM EDT Normal
RAWS PRAWS 7 KY, Jenkins, KY 74 °F 75 °F 22 °F 14% SW  at  2 mph 0.00 in / hr 3018 ft 2:24 PM EDT MADIS
KYMN Harlan 24 E KY, Lynch, KY 66 °F - 29 °F 25% North  at  6 mph 0.00 in / hr 4031 ft 3:30 PM EDT MADIS

Show More Stations Show Fewer Stations

What do you think?

We're not finished. Please let us know what you like, what you don't like, and what you are still missing.